createdAt,value
2023-01-15T04:34:59.403Z,0.67
2023-01-15T04:35:59.366Z,0.66
2023-01-15T04:36:59.329Z,0.65
2023-01-15T04:37:59.301Z,0.63
2023-01-15T04:38:59.271Z,0.63
2023-01-15T04:39:59.244Z,0.66
2023-01-15T04:40:59.236Z,0.70
2023-01-15T04:41:59.197Z,0.62
2023-01-15T04:42:59.166Z,0.61
2023-01-15T04:43:59.155Z,0.65
2023-01-15T04:44:59.113Z,0.64
2023-01-15T04:45:59.145Z,0.64
2023-01-15T04:46:59.097Z,0.62
2023-01-15T04:47:59.023Z,0.62
2023-01-15T04:48:59.007Z,0.60
2023-01-15T04:49:58.985Z,0.60
2023-01-15T04:50:58.976Z,0.64
2023-01-15T04:51:58.932Z,0.67
2023-01-15T09:15:52.437Z,0.63
2023-01-15T10:07:51.061Z,0.64
2023-01-15T10:08:51.036Z,0.63
2023-01-15T10:09:51.027Z,0.58
2023-01-15T10:10:51.010Z,0.58
2023-01-15T10:11:50.968Z,0.63
2023-01-15T10:12:50.930Z,0.64
2023-01-15T10:13:50.897Z,0.67
2023-01-15T10:14:50.867Z,0.62
2023-01-15T10:15:50.877Z,0.60
2023-01-15T10:16:50.817Z,0.61
2023-01-15T10:17:50.779Z,0.64
2023-01-15T10:18:50.765Z,0.66
2023-01-15T10:19:50.737Z,0.66
2023-01-15T10:20:50.706Z,0.60
2023-01-15T10:21:50.684Z,0.57
2023-01-15T10:22:50.658Z,0.57
2023-01-15T10:23:50.628Z,0.57
2023-01-15T10:24:50.588Z,0.58
2023-01-15T10:33:50.352Z,0.62
2023-01-15T10:58:49.527Z,0.70
2023-01-15T11:03:49.313Z,0.66
2023-01-15T11:05:49.240Z,0.66
2023-01-15T11:06:49.194Z,0.67
2023-01-15T11:08:06.415Z,0.67
2023-01-15T11:09:49.070Z,0.66
2023-01-15T11:10:49.031Z,0.63
2023-01-15T11:11:48.983Z,0.66
2023-01-15T11:12:48.947Z,0.69
2023-01-15T11:13:48.911Z,0.66
2023-01-15T11:55:56.167Z,0.50
2023-01-15T13:50:33.018Z,0.67
2023-01-15T13:51:33.919Z,0.68
2023-01-15T13:52:32.966Z,0.66
2023-01-15T13:53:32.946Z,0.66
2023-01-15T13:54:32.936Z,0.65
2023-01-15T13:55:32.909Z,0.67
2023-01-15T13:56:32.882Z,0.71
2023-01-15T13:57:32.920Z,0.66
2023-01-15T13:58:32.881Z,0.63
2023-01-15T13:59:32.859Z,0.64
2023-01-15T14:00:32.840Z,0.65
2023-01-15T14:01:32.880Z,0.68
2023-01-15T14:02:32.793Z,0.67
2023-01-15T14:03:32.772Z,0.65
2023-01-15T14:04:32.738Z,0.62
2023-01-15T14:05:32.742Z,0.63
2023-01-15T14:06:32.724Z,0.68
2023-01-15T14:07:32.706Z,0.69
2023-01-15T14:08:32.676Z,0.65
2023-01-15T14:09:32.665Z,0.63
2023-01-15T14:10:32.645Z,0.64
2023-01-15T14:11:32.632Z,0.67
2023-01-15T14:12:32.609Z,0.71
2023-01-15T14:13:32.605Z,0.67
2023-01-15T14:14:32.571Z,0.65
2023-01-15T14:15:32.564Z,0.65
2023-01-15T14:16:32.608Z,0.66
2023-01-15T14:17:32.534Z,0.70
2023-01-15T14:18:32.518Z,0.68
2023-01-15T14:19:32.503Z,0.62
2023-01-15T14:20:32.481Z,0.67
2023-01-15T14:21:32.527Z,0.70
2023-01-15T14:22:32.461Z,0.69
2023-01-15T14:23:32.450Z,0.69
2023-01-15T14:24:32.435Z,0.69
2023-01-15T14:25:32.403Z,0.70
2023-01-15T14:26:32.393Z,0.70
2023-01-15T14:27:32.362Z,0.68
2023-01-15T14:28:32.351Z,0.69
2023-01-15T14:29:32.315Z,0.69
2023-01-15T14:30:32.321Z,0.71
2023-01-15T14:31:32.298Z,0.72
2023-01-15T14:32:32.271Z,0.71
2023-01-15T14:33:32.262Z,0.73
2023-01-15T14:34:32.230Z,0.72
2023-01-15T14:35:32.207Z,0.76
2023-01-15T14:36:32.187Z,0.78
2023-01-15T14:37:32.176Z,0.78
2023-01-15T14:38:33.467Z,0.78
2023-01-15T14:39:32.144Z,0.75
2023-01-15T14:40:32.133Z,0.76
2023-01-15T14:41:32.105Z,0.77
2023-01-15T14:42:32.100Z,0.76
2023-01-15T14:43:32.073Z,0.78
2023-01-15T14:44:32.054Z,0.79
2023-01-15T14:45:32.078Z,0.78
2023-01-15T14:46:32.015Z,0.80
2023-01-15T14:47:31.973Z,0.82
2023-01-15T14:48:31.958Z,0.80
2023-01-15T14:49:31.944Z,0.80
2023-01-15T14:50:31.903Z,0.79
2023-01-15T14:51:31.895Z,0.79
2023-01-15T14:52:31.895Z,0.82
2023-01-15T14:53:31.872Z,0.80
2023-01-15T14:54:31.847Z,0.80
2023-01-15T14:55:31.802Z,0.80
2023-01-15T14:56:31.828Z,0.82
2023-01-15T14:57:31.778Z,0.82
2023-01-15T14:58:31.768Z,0.82
2023-01-15T14:59:31.737Z,0.82
2023-01-15T15:00:31.714Z,0.83
2023-01-15T15:01:31.766Z,0.81
2023-01-15T15:02:31.959Z,0.83
2023-01-15T15:03:31.646Z,0.85
2023-01-15T15:04:31.626Z,0.83
2023-01-15T15:05:31.617Z,0.81
2023-01-15T15:06:31.590Z,0.83
2023-01-15T15:07:31.567Z,0.83
2023-01-15T15:08:31.545Z,0.82
2023-01-15T15:09:31.541Z,0.83
2023-01-15T15:10:31.533Z,0.82
2023-01-15T15:11:31.494Z,0.85
2023-01-15T15:12:31.474Z,0.83
2023-01-15T15:13:31.450Z,0.85
2023-01-15T15:14:31.447Z,0.84
2023-01-15T15:15:31.426Z,0.85
2023-01-15T15:16:31.471Z,0.82
2023-01-15T15:17:31.380Z,0.81
2023-01-15T15:18:31.351Z,0.83
2023-01-15T15:19:31.320Z,0.86
2023-01-15T15:20:31.283Z,0.81
2023-01-15T15:21:31.277Z,0.85
2023-01-15T15:22:31.244Z,0.84
2023-01-15T15:23:31.235Z,0.83
2023-01-15T15:24:31.227Z,0.82
2023-01-15T15:25:31.172Z,0.85
2023-01-15T15:26:31.157Z,0.84
2023-01-15T15:27:31.150Z,0.83
2023-01-15T15:28:31.131Z,0.86
2023-01-15T15:29:31.135Z,0.83
2023-01-15T15:30:31.117Z,0.81
2023-01-15T15:31:31.088Z,0.83
2023-01-15T15:32:31.033Z,0.85
2023-01-15T15:33:30.995Z,0.83
2023-01-15T15:34:30.986Z,0.88
2023-01-15T15:35:30.992Z,0.84
2023-01-15T15:36:30.980Z,0.82
2023-01-15T15:37:30.925Z,0.84
2023-01-15T15:38:31.436Z,0.83
2023-01-15T15:39:30.897Z,0.85
2023-01-15T15:40:30.876Z,0.85
2023-01-15T15:41:30.838Z,0.85
2023-01-15T15:42:30.827Z,0.85
2023-01-15T15:43:30.820Z,0.85
2023-01-15T15:44:30.799Z,0.85
2023-01-15T15:45:30.779Z,0.86
2023-01-15T15:46:30.764Z,0.83
2023-01-15T15:47:30.750Z,0.85
2023-01-15T15:48:31.744Z,0.87
2023-01-15T15:49:30.688Z,0.87
2023-01-15T15:50:30.673Z,0.84
2023-01-15T15:51:30.649Z,0.85
2023-01-15T15:52:30.633Z,0.82
2023-01-15T15:53:30.620Z,0.87
2023-01-15T15:54:30.591Z,0.85
2023-01-15T15:55:30.599Z,0.85
2023-01-15T15:56:30.703Z,0.84
2023-01-15T15:57:30.546Z,0.83
2023-01-15T15:58:30.517Z,0.84
2023-01-15T15:59:30.494Z,0.86
2023-01-15T16:00:30.486Z,0.83
2023-01-15T16:01:30.509Z,0.84
2023-01-15T16:02:30.473Z,0.85
2023-01-15T16:03:32.723Z,0.85
2023-01-15T16:04:30.552Z,0.87
2023-01-15T16:05:30.558Z,0.86
2023-01-15T16:06:30.515Z,0.84
2023-01-15T16:07:30.501Z,0.86
2023-01-15T16:08:30.474Z,0.86
2023-01-15T16:09:30.459Z,0.86
2023-01-15T16:10:30.462Z,0.86
2023-01-15T16:11:30.431Z,0.86
2023-01-15T16:12:30.432Z,0.86
2023-01-15T16:13:30.398Z,0.86
2023-01-15T16:14:30.378Z,0.85
2023-01-15T16:15:30.405Z,0.87
2023-01-15T16:16:30.341Z,0.85
2023-01-15T16:17:30.321Z,0.85
2023-01-15T16:18:30.304Z,0.83
2023-01-15T16:19:30.269Z,0.83
2023-01-15T16:20:30.261Z,0.83
2023-01-15T16:21:30.239Z,0.84
2023-01-15T16:22:30.240Z,0.85
2023-01-15T16:23:30.211Z,0.86
2023-01-15T16:24:30.196Z,0.84
2023-01-15T16:25:30.179Z,0.80
2023-01-15T16:26:30.174Z,0.87
2023-01-15T16:27:30.150Z,0.85
2023-01-15T16:28:30.124Z,0.87
2023-01-15T16:29:30.096Z,0.86
2023-01-15T16:30:30.091Z,0.87
2023-01-15T16:31:30.086Z,0.85
2023-01-15T16:32:30.132Z,0.87
2023-01-15T16:33:30.031Z,0.88
2023-01-15T16:34:30.021Z,0.84
2023-01-15T16:35:30.017Z,0.85
2023-01-15T16:36:29.999Z,0.87
2023-01-15T16:37:29.952Z,0.86
2023-01-15T16:38:29.932Z,0.86
2023-01-15T16:39:29.919Z,0.86
2023-01-15T16:40:29.886Z,0.85
2023-01-15T16:41:29.866Z,0.87
2023-01-15T16:42:29.853Z,0.85
2023-01-15T16:43:29.841Z,0.83
2023-01-15T16:44:29.800Z,0.85
2023-01-15T16:45:29.781Z,0.86
2023-01-15T16:46:29.806Z,0.88
2023-01-15T16:47:29.742Z,0.83
2023-01-15T16:48:29.820Z,0.85
2023-01-15T16:49:29.712Z,0.83
2023-01-15T16:50:29.677Z,0.83
2023-01-15T16:51:29.670Z,0.86
2023-01-15T16:52:29.647Z,0.85
2023-01-15T16:53:29.620Z,0.85
2023-01-15T16:54:29.705Z,0.87
2023-01-15T16:55:29.587Z,0.89
2023-01-15T16:56:29.583Z,0.85
2023-01-15T16:57:29.551Z,0.87
2023-01-15T16:58:29.541Z,0.88
2023-01-15T16:59:29.512Z,0.86
2023-01-15T17:00:29.512Z,0.81
2023-01-15T17:01:29.515Z,0.76
2023-01-15T17:02:29.459Z,0.76
2023-01-15T17:03:29.441Z,0.79
2023-01-15T17:04:29.444Z,0.82
2023-01-15T17:05:29.431Z,0.81
2023-01-15T17:06:30.455Z,0.76
2023-01-15T17:07:29.397Z,0.74
2023-01-15T17:08:29.382Z,0.75
2023-01-15T17:09:29.393Z,0.77
2023-01-15T17:10:29.366Z,0.83
2023-01-15T17:11:29.360Z,0.77
2023-01-15T17:12:29.339Z,0.68
2023-01-15T17:13:29.321Z,0.70
2023-01-15T17:14:29.299Z,0.73
2023-01-15T17:15:29.289Z,0.74
2023-01-15T17:16:29.297Z,0.78
2023-01-15T17:17:29.274Z,0.70
2023-01-15T17:18:29.276Z,0.67
2023-01-15T17:19:29.248Z,0.69
2023-01-15T17:20:29.222Z,0.72
2023-01-15T17:21:29.210Z,0.77
2023-01-15T17:22:29.245Z,0.71
2023-01-15T17:23:29.200Z,0.66
2023-01-15T17:24:29.171Z,0.67
2023-01-15T17:25:29.152Z,0.69
2023-01-15T17:26:29.144Z,0.73
2023-01-15T17:27:29.144Z,0.74
2023-01-15T17:28:29.111Z,0.67
2023-01-15T17:29:29.085Z,0.67
2023-01-15T17:30:29.074Z,0.69
2023-01-15T17:31:29.105Z,0.70
2023-01-15T17:32:29.047Z,0.74
2023-01-15T17:33:29.030Z,0.71
2023-01-15T17:34:29.026Z,0.63
2023-01-15T17:35:28.996Z,0.66
2023-01-15T17:36:28.984Z,0.68
2023-01-15T17:37:28.984Z,0.70
2023-01-15T17:38:28.966Z,0.70
2023-01-15T17:39:28.957Z,0.66
2023-01-15T17:40:28.938Z,0.59
2023-01-15T17:41:28.913Z,0.63
2023-01-15T17:42:28.912Z,0.66
2023-01-15T17:43:28.898Z,0.72
2023-01-15T17:44:28.874Z,0.65
2023-01-15T17:45:28.855Z,0.68
2023-01-15T17:46:28.964Z,0.65
2023-01-15T17:47:28.839Z,0.67
2023-01-15T17:48:28.831Z,0.66
2023-01-15T17:49:28.824Z,0.69
2023-01-15T17:50:28.810Z,0.67
2023-01-15T17:51:28.802Z,0.62
2023-01-15T17:52:28.803Z,0.63
2023-01-15T17:53:28.774Z,0.66
2023-01-15T17:54:28.773Z,0.71
2023-01-15T17:55:28.745Z,0.70
2023-01-15T17:56:28.751Z,0.66
2023-01-15T17:57:28.742Z,0.64
2023-01-15T17:58:28.710Z,0.67
2023-01-15T17:59:28.692Z,0.68
2023-01-15T18:00:28.679Z,0.69
2023-01-15T18:01:28.750Z,0.66
2023-01-15T18:02:28.686Z,0.63
2023-01-15T18:03:28.647Z,0.67
2023-01-15T18:04:28.625Z,0.68
2023-01-15T18:05:28.621Z,0.71
2023-01-15T18:06:28.605Z,0.70
2023-01-15T18:07:28.602Z,0.65
2023-01-15T18:08:28.571Z,0.63
2023-01-15T18:09:28.567Z,0.66
2023-01-15T18:10:28.547Z,0.67
2023-01-15T18:11:28.546Z,0.71
2023-01-15T18:12:28.528Z,0.66
2023-01-15T18:13:28.529Z,0.63
2023-01-15T18:14:28.512Z,0.66
2023-01-15T18:15:28.504Z,0.67
2023-01-15T18:16:28.561Z,0.69
2023-01-15T18:17:28.507Z,0.68
2023-01-15T18:18:28.495Z,0.68
2023-01-15T18:19:28.452Z,0.62
2023-01-15T18:20:28.439Z,0.66
2023-01-15T18:21:28.423Z,0.70
2023-01-15T18:22:28.419Z,0.72
2023-01-15T18:23:28.405Z,0.67
2023-01-15T18:24:28.388Z,0.62
2023-01-15T18:25:28.376Z,0.63
2023-01-15T18:26:28.363Z,0.67
2023-01-15T18:27:28.343Z,0.69
2023-01-15T18:28:28.331Z,0.69
2023-01-15T18:29:28.316Z,0.67
2023-01-15T18:30:28.310Z,0.66
2023-01-15T18:31:28.345Z,0.66
2023-01-15T18:32:28.295Z,0.66
2023-01-15T18:33:28.286Z,0.71
2023-01-15T18:34:28.259Z,0.70
2023-01-15T18:35:28.254Z,0.61
2023-01-15T18:36:28.248Z,0.66
2023-01-15T18:37:28.233Z,0.66
2023-01-15T18:38:28.283Z,0.68
2023-01-15T18:39:28.222Z,0.68
2023-01-15T18:40:28.225Z,0.68
2023-01-15T18:41:28.210Z,0.66
2023-01-15T18:42:28.165Z,0.67
2023-01-15T18:43:28.162Z,0.69
2023-01-15T18:44:28.148Z,0.74
2023-01-15T18:45:28.148Z,0.70
2023-01-15T18:46:28.133Z,0.65
2023-01-15T18:47:28.112Z,0.66
2023-01-15T18:48:28.097Z,0.68
2023-01-15T18:49:28.085Z,0.68
2023-01-15T18:50:28.077Z,0.71
2023-01-15T18:51:28.046Z,0.69
2023-01-15T18:52:28.051Z,0.67
2023-01-15T18:53:28.051Z,0.69
2023-01-15T18:54:28.042Z,0.70
2023-01-15T18:55:28.035Z,0.72
2023-01-15T18:56:28.042Z,0.71
2023-01-15T18:57:28.015Z,0.69
2023-01-15T18:58:28.029Z,0.66
2023-01-15T18:59:27.995Z,0.70
2023-01-15T19:00:28.005Z,0.70
2023-01-15T19:01:27.968Z,0.72
2023-01-15T19:02:28.003Z,0.68
2023-01-15T19:03:27.937Z,0.64
2023-01-15T19:04:27.908Z,0.68
2023-01-15T19:05:27.898Z,0.70
2023-01-15T19:06:27.891Z,0.72
2023-01-15T19:07:27.863Z,0.74
2023-01-15T19:08:27.863Z,0.69
2023-01-15T19:09:27.855Z,0.67
2023-01-15T19:10:27.834Z,0.66
2023-01-15T19:11:27.823Z,0.71
2023-01-15T19:12:27.800Z,0.74
2023-01-15T19:13:27.808Z,0.71
2023-01-15T19:14:27.783Z,0.68
2023-01-15T19:15:27.768Z,0.67
2023-01-15T19:16:27.800Z,0.70
2023-01-15T19:17:27.757Z,0.74
2023-01-15T19:18:27.747Z,0.72
2023-01-15T19:19:27.746Z,0.70
2023-01-15T19:20:27.718Z,0.66
2023-01-15T19:21:27.715Z,0.66
2023-01-15T19:22:27.713Z,0.67
2023-01-15T19:23:27.723Z,0.71
2023-01-15T19:24:27.697Z,0.70
2023-01-15T19:25:27.727Z,0.64
2023-01-15T19:26:27.695Z,0.64
2023-01-15T19:27:27.673Z,0.65
2023-01-15T19:28:27.671Z,0.70
2023-01-15T19:29:27.668Z,0.71
2023-01-15T19:30:27.669Z,0.65
2023-01-15T19:31:27.690Z,0.64
2023-01-15T19:32:27.641Z,0.65
2023-01-15T19:33:27.622Z,0.66
2023-01-15T19:34:34.808Z,0.71
2023-01-15T19:35:28.630Z,0.71
2023-01-15T19:36:27.596Z,0.65
2023-01-15T19:37:27.595Z,0.63
2023-01-15T19:38:27.600Z,0.63
2023-01-15T19:39:27.588Z,0.68
2023-01-15T19:40:27.566Z,0.70
2023-01-15T19:41:27.580Z,0.64
2023-01-15T19:42:27.562Z,0.62
2023-01-15T19:43:27.542Z,0.63
2023-01-15T19:44:27.554Z,0.65
2023-01-15T19:45:27.524Z,0.71
2023-01-15T19:46:27.539Z,0.69
2023-01-15T19:47:27.520Z,0.64
2023-01-15T19:48:27.508Z,0.63
2023-01-15T19:49:27.533Z,0.65
2023-01-15T19:50:27.515Z,0.66
2023-01-15T19:51:27.517Z,0.72
2023-01-15T19:52:27.468Z,0.67
2023-01-15T19:53:27.483Z,0.63
2023-01-15T19:54:27.466Z,0.64
2023-01-15T19:55:27.451Z,0.69
2023-01-15T19:56:27.451Z,0.69
2023-01-15T19:57:27.427Z,0.66
2023-01-15T19:58:27.418Z,0.62
2023-01-15T19:59:27.441Z,0.65
2023-01-15T20:00:27.410Z,0.64
2023-01-15T20:01:27.454Z,0.65
2023-01-15T20:02:27.395Z,0.70
2023-01-15T20:03:27.409Z,0.64
2023-01-15T20:04:27.383Z,0.62
2023-01-15T20:05:27.402Z,0.63
2023-01-15T20:06:27.394Z,0.64
2023-01-15T20:07:27.370Z,0.67
2023-01-15T20:08:27.375Z,0.66
2023-01-15T20:09:27.382Z,0.64
2023-01-15T20:10:27.352Z,0.64
2023-01-15T20:11:27.353Z,0.64
2023-01-15T20:12:27.337Z,0.65
2023-01-15T20:13:27.353Z,0.67
2023-01-15T20:14:27.319Z,0.66
2023-01-15T20:15:27.353Z,0.62
2023-01-15T20:16:27.363Z,0.64
2023-01-15T20:17:27.299Z,0.66
2023-01-15T20:18:27.280Z,0.68
2023-01-15T20:19:27.321Z,0.68
2023-01-15T20:20:27.295Z,0.63
2023-01-15T20:21:27.247Z,0.63
2023-01-15T20:22:27.246Z,0.67
2023-01-15T20:23:27.240Z,0.66
2023-01-15T20:24:27.223Z,0.70
2023-01-15T20:25:27.220Z,0.65
2023-01-15T20:26:27.200Z,0.62
2023-01-15T20:27:27.201Z,0.66
2023-01-15T20:28:27.186Z,0.66
2023-01-15T20:29:28.199Z,0.67
2023-01-15T20:30:27.160Z,0.67
2023-01-15T20:31:27.242Z,0.65
2023-01-15T20:32:27.132Z,0.65
2023-01-15T20:33:27.146Z,0.68
2023-01-15T20:34:27.121Z,0.69
2023-01-15T20:35:27.137Z,0.70
2023-01-15T20:36:27.118Z,0.66
2023-01-15T20:37:27.105Z,0.66
2023-01-15T20:38:27.111Z,0.67
2023-01-15T20:39:27.121Z,0.69
2023-01-15T20:40:27.089Z,0.69
2023-01-15T20:41:27.074Z,0.71
2023-01-15T20:42:27.061Z,0.66
2023-01-15T20:43:27.059Z,0.66
2023-01-15T20:44:27.057Z,0.69
2023-01-15T20:45:27.104Z,0.70
2023-01-15T20:46:27.029Z,0.72
2023-01-15T20:47:27.032Z,0.70
2023-01-15T20:48:27.005Z,0.67
2023-01-15T20:49:26.990Z,0.68
2023-01-15T20:50:26.974Z,0.66
2023-01-15T20:51:26.969Z,0.70
2023-01-15T20:52:26.953Z,0.70
2023-01-15T20:53:26.940Z,0.70
2023-01-15T20:54:26.938Z,0.68
2023-01-15T20:55:26.943Z,0.68
2023-01-15T20:56:26.911Z,0.69
2023-01-15T20:57:26.886Z,0.72
2023-01-15T20:58:26.976Z,0.66
2023-01-15T20:59:26.864Z,0.67
2023-01-15T21:00:26.880Z,0.68
2023-01-15T21:01:26.944Z,0.68
2023-01-15T21:02:26.865Z,0.69
2023-01-15T21:03:26.859Z,0.71
2023-01-15T21:04:26.847Z,0.70
2023-01-15T21:05:26.832Z,0.66
2023-01-15T21:06:26.816Z,0.66
2023-01-15T21:07:26.817Z,0.66
2023-01-15T21:08:26.798Z,0.70
2023-01-15T21:09:26.794Z,0.70
2023-01-15T21:10:26.778Z,0.67
2023-01-15T21:11:26.783Z,0.68
2023-01-15T21:12:26.750Z,0.67
2023-01-15T21:13:26.751Z,0.71
2023-01-15T21:14:26.724Z,0.74
2023-01-15T21:15:26.705Z,0.68
2023-01-15T21:16:26.734Z,0.65
2023-01-15T21:17:26.686Z,0.66
2023-01-15T21:18:26.679Z,0.69
2023-01-15T21:19:26.681Z,0.70
2023-01-15T21:20:26.671Z,0.70
2023-01-15T21:21:26.649Z,0.65
2023-01-15T21:22:26.623Z,0.63
2023-01-15T21:23:26.592Z,0.67
2023-01-15T21:24:26.584Z,0.68
2023-01-15T21:25:26.573Z,0.72
2023-01-15T21:26:26.565Z,0.69
2023-01-15T21:27:26.602Z,0.65
2023-01-15T21:28:26.578Z,0.65
2023-01-15T21:29:26.536Z,0.68
2023-01-15T21:30:26.512Z,0.69
2023-01-15T21:31:26.551Z,0.71
2023-01-15T21:32:26.471Z,0.69
2023-01-15T21:33:26.481Z,0.66
2023-01-15T21:34:26.459Z,0.68
2023-01-15T21:35:26.453Z,0.71
2023-01-15T21:36:26.443Z,0.71
2023-01-15T21:37:26.428Z,0.71
2023-01-15T21:38:26.417Z,0.70
2023-01-15T21:39:26.414Z,0.68
2023-01-15T21:40:26.398Z,0.70
2023-01-15T21:41:26.388Z,0.69
2023-01-15T21:42:26.374Z,0.73
2023-01-15T21:43:26.381Z,0.69
2023-01-15T21:44:26.365Z,0.66
2023-01-15T21:45:26.355Z,0.68
2023-01-15T21:46:26.340Z,0.68
2023-01-15T21:47:26.325Z,0.71
2023-01-15T21:48:26.317Z,0.72
2023-01-15T21:49:26.307Z,0.69
2023-01-15T21:50:26.297Z,0.66
2023-01-15T21:51:26.309Z,0.68
2023-01-15T21:52:26.276Z,0.70
2023-01-15T21:53:26.262Z,0.73
2023-01-15T21:54:26.254Z,0.70
2023-01-15T21:55:26.230Z,0.67
2023-01-15T21:56:26.236Z,0.65
2023-01-15T21:57:26.232Z,0.68
2023-01-15T21:58:26.206Z,0.71
2023-01-15T21:59:26.179Z,0.71
2023-01-15T22:00:26.171Z,0.66
2023-01-15T22:01:26.407Z,0.67
2023-01-15T22:02:26.200Z,0.66
2023-01-15T22:03:26.141Z,0.70
2023-01-15T22:04:26.120Z,0.72
2023-01-15T22:05:26.116Z,0.68
2023-01-15T22:06:26.112Z,0.66
2023-01-15T22:07:26.097Z,0.67
2023-01-15T22:08:26.086Z,0.69
2023-01-15T22:09:26.058Z,0.72
2023-01-15T22:10:26.056Z,0.70
2023-01-15T22:11:26.046Z,0.69
2023-01-15T22:12:26.046Z,0.66
2023-01-15T22:13:26.027Z,0.67
2023-01-15T22:14:26.019Z,0.69
2023-01-15T22:15:26.001Z,0.71
2023-01-15T22:16:26.056Z,0.70
2023-01-15T22:17:25.986Z,0.66
2023-01-15T22:18:25.972Z,0.67
2023-01-15T22:19:25.969Z,0.68
2023-01-15T22:20:25.947Z,0.69
2023-01-15T22:21:25.940Z,0.72
2023-01-15T22:22:25.932Z,0.69
2023-01-15T22:23:25.921Z,0.67
2023-01-15T22:24:25.919Z,0.67
2023-01-15T22:25:25.915Z,0.66
2023-01-15T22:26:25.913Z,0.70
2023-01-15T22:27:25.908Z,0.70
2023-01-15T22:28:25.896Z,0.67
2023-01-15T22:29:25.897Z,0.66
2023-01-15T22:30:25.888Z,0.67
2023-01-15T22:31:25.883Z,0.68
2023-01-15T22:32:25.870Z,0.69
2023-01-15T22:33:25.860Z,0.68
2023-01-15T22:34:25.882Z,0.68
2023-01-15T22:35:25.852Z,0.68
2023-01-15T22:36:25.827Z,0.69
2023-01-15T22:37:25.826Z,0.70
2023-01-15T22:38:25.816Z,0.72
2023-01-15T22:39:25.829Z,0.68
2023-01-15T22:40:25.803Z,0.66
2023-01-15T22:41:25.805Z,0.66
2023-01-15T22:42:25.794Z,0.69
2023-01-15T22:43:25.793Z,0.72
2023-01-15T22:44:25.772Z,0.68
2023-01-15T22:45:25.762Z,0.63
2023-01-15T22:46:25.822Z,0.66
2023-01-15T22:47:25.753Z,0.68
2023-01-15T22:48:25.735Z,0.68
2023-01-15T22:49:25.740Z,0.69
2023-01-15T22:50:25.717Z,0.67
2023-01-15T22:51:25.716Z,0.65
2023-01-15T22:52:25.756Z,0.68
2023-01-15T22:53:25.708Z,0.69
2023-01-15T22:54:25.706Z,0.70
2023-01-15T22:55:25.691Z,0.68
2023-01-15T22:56:25.689Z,0.64
2023-01-15T22:57:25.697Z,0.66
2023-01-15T22:58:25.677Z,0.66
2023-01-15T22:59:25.667Z,0.68
2023-01-15T23:00:25.659Z,0.70
2023-01-15T23:01:25.719Z,0.65
2023-01-15T23:02:25.670Z,0.63
2023-01-15T23:03:25.664Z,0.66
2023-01-15T23:04:25.706Z,0.68
2023-01-15T23:05:25.629Z,0.69
2023-01-15T23:06:25.621Z,0.69
2023-01-15T23:07:25.631Z,0.64
2023-01-15T23:08:25.639Z,0.64
2023-01-15T23:09:25.612Z,0.67
2023-01-15T23:10:25.612Z,0.66
2023-01-15T23:11:25.593Z,0.71
2023-01-15T23:12:25.583Z,0.68
2023-01-15T23:13:25.577Z,0.65
2023-01-15T23:14:25.570Z,0.66
2023-01-15T23:15:25.705Z,0.66
2023-01-15T23:16:25.551Z,0.68
2023-01-15T23:17:25.550Z,0.68
2023-01-15T23:18:25.543Z,0.67
2023-01-15T23:19:25.542Z,0.65
2023-01-15T23:20:25.534Z,0.68
2023-01-15T23:21:25.531Z,0.68
2023-01-15T23:22:25.511Z,0.69
2023-01-15T23:23:25.508Z,0.66
2023-01-15T23:24:25.490Z,0.66
2023-01-15T23:25:25.498Z,0.66
2023-01-15T23:26:25.481Z,0.66
2023-01-15T23:27:25.473Z,0.67
2023-01-15T23:28:25.467Z,0.69
2023-01-15T23:29:25.472Z,0.66
2023-01-15T23:30:25.462Z,0.63
2023-01-15T23:31:25.517Z,0.66
2023-01-15T23:32:25.455Z,0.67
2023-01-15T23:33:25.437Z,0.68
2023-01-15T23:34:25.428Z,0.68
2023-01-15T23:35:25.412Z,0.66
2023-01-15T23:36:25.410Z,0.65
2023-01-15T23:37:25.404Z,0.65
2023-01-15T23:38:25.397Z,0.68
2023-01-15T23:39:25.383Z,0.70
2023-01-15T23:40:25.379Z,0.66
2023-01-15T23:41:25.378Z,0.64
2023-01-15T23:42:25.358Z,0.64
2023-01-15T23:43:25.355Z,0.66
2023-01-15T23:44:25.340Z,0.67
2023-01-15T23:45:25.330Z,0.68
2023-01-15T23:46:25.364Z,0.64
2023-01-15T23:47:25.337Z,0.65
2023-01-15T23:48:25.327Z,0.65
2023-01-15T23:49:25.312Z,0.66
2023-01-15T23:50:25.309Z,0.68
2023-01-15T23:51:25.299Z,0.66
2023-01-15T23:52:25.300Z,0.63
2023-01-15T23:53:25.286Z,0.65
2023-01-15T23:54:25.287Z,0.65
2023-01-15T23:55:25.281Z,0.65
2023-01-15T23:56:25.266Z,0.65
2023-01-15T23:57:25.255Z,0.65
2023-01-15T23:58:25.255Z,0.62
2023-01-15T23:59:25.235Z,0.65
